Time;durP1;ratioP1;P1;durP2;ratioP2;P2;SDS_P1;SDS_P2;PMS_P1;PMS_P2;Temp;Humidity;BMP_temperature;BMP_pressure;BME280_temperature;BME280_humidity;BME280_pressure;Samples;Min_cycle;Max_cycle;Signal;HPM_P1;HPM_P2
2022/12/15 00:39:39;;;;;;;17.37;15.77;;;;;;;-2.77;100.00;97479.50;4220485;27;20241;-48
2022/12/15 00:41:41;;;;;;;17.27;14.90;;;;;;;-2.77;100.00;97487.53;4205970;28;20209;-48
2022/12/15 00:43:43;;;;;;;16.23;14.53;;;;;;;-2.75;100.00;97482.84;4207658;28;20312;-48
2022/12/15 00:48:06;;;;;;;17.53;15.83;;;;;;;-2.72;100.00;97488.66;4216053;28;20226;-48
2022/12/15 01:20:33;;;;;;;15.50;14.20;;;;;;;-2.81;100.00;97510.38;4202883;28;20669;-48
2022/12/15 01:22:36;;;;;;;14.73;13.40;;;;;;;-2.80;100.00;97517.38;4200114;28;20214;-48
2022/12/15 01:24:38;;;;;;;15.50;14.03;;;;;;;-2.80;100.00;97514.69;4204255;28;20723;-48
2022/12/15 01:26:41;;;;;;;14.43;13.17;;;;;;;-2.71;100.00;97524.25;4188602;28;20657;-48
2022/12/15 01:28:43;;;;;;;14.57;13.27;;;;;;;-2.76;100.00;97518.63;4200640;28;20323;-48
2022/12/15 01:30:45;;;;;;;17.93;16.10;;;;;;;-2.74;100.00;97524.66;4207000;28;20242;-48
2022/12/15 01:32:46;;;;;;;17.00;13.87;;;;;;;-2.76;100.00;97519.47;4190242;28;20294;-47
2022/12/15 01:34:48;;;;;;;14.97;13.57;;;;;;;-2.70;100.00;97525.91;4217134;27;20645;-47
2022/12/15 01:36:50;;;;;;;16.73;15.30;;;;;;;-2.75;100.00;97531.03;4205294;28;20249;-48
2022/12/15 01:38:52;;;;;;;13.83;12.43;;;;;;;-2.73;100.00;97535.13;4200894;28;20628;-47
2022/12/15 01:40:59;;;;;;;15.53;14.10;;;;;;;-2.80;100.00;97530.75;4201680;28;20207;-47
2022/12/15 01:43:01;;;;;;;15.87;14.20;;;;;;;-2.86;100.00;97529.66;4199244;28;20245;-48
2022/12/15 01:45:36;;;;;;;16.03;12.80;;;;;;;-2.86;100.00;97529.66;4198181;28;20210;-47
2022/12/15 01:47:38;;;;;;;13.53;12.30;;;;;;;-2.89;100.00;97545.25;4192885;28;21050;-47
2022/12/15 01:49:41;;;;;;;13.57;12.37;;;;;;;-2.91;100.00;97541.97;4217226;27;20209;-46
2022/12/15 01:51:47;;;;;;;15.17;13.63;;;;;;;-2.92;100.00;97545.66;4198711;28;20302;-48
2022/12/15 01:53:54;;;;;;;13.70;12.50;;;;;;;-2.91;100.00;97539.28;4217405;27;20219;-47
2022/12/15 01:55:56;;;;;;;13.93;12.70;;;;;;;-2.93;100.00;97544.00;4199776;28;20246;-48
2022/12/15 01:58:05;;;;;;;13.43;12.13;;;;;;;-2.95;100.00;97530.00;4200946;28;20225;-48
2022/12/15 02:00:07;;;;;;;14.57;13.10;;;;;;;-2.98;100.00;97531.19;4187565;28;20298;-48
2022/12/15 02:02:11;;;;;;;17.07;14.70;;;;;;;-2.98;100.00;97535.72;4198595;28;20655;-48
2022/12/15 02:04:13;;;;;;;14.73;13.30;;;;;;;-2.99;100.00;97531.38;4200610;28;20288;-48
2022/12/15 02:06:17;;;;;;;14.40;13.10;;;;;;;-2.98;100.00;97531.19;4216968;28;20269;-48
2022/12/15 02:08:20;;;;;;;14.13;12.57;;;;;;;-2.95;100.00;97528.13;4199548;28;20227;-48
2022/12/15 02:10:24;;;;;;;15.33;12.53;;;;;;;-3.07;100.00;97526.16;4202332;28;20248;-48
2022/12/15 02:13:00;;;;;;;13.97;12.50;;;;;;;-3.07;100.00;97531.50;4216025;28;20241;-48
2022/12/15 02:15:08;;;;;;;13.10;12.00;;;;;;;-3.11;100.00;97535.56;4199730;27;20211;-48
2022/12/15 02:17:26;;;;;;;13.93;12.73;;;;;;;-3.15;100.00;97534.31;4199530;28;20215;-48
2022/12/15 02:19:49;;;;;;;13.77;12.40;;;;;;;-3.14;100.00;97535.97;4217835;27;20248;-48
2022/12/15 02:22:08;;;;;;;15.97;14.37;;;;;;;-3.19;100.00;97533.00;4216475;27;20207;-49
2022/12/15 02:24:56;;;;;;;14.03;12.77;;;;;;;-3.21;100.00;97546.56;4216489;28;20249;-48
2022/12/15 02:27:26;;;;;;;15.07;11.90;;;;;;;-3.19;100.00;97549.91;4198475;28;20332;-48
2022/12/15 02:30:15;;;;;;;15.13;12.63;;;;;;;-3.18;100.00;97546.22;4196174;28;20207;-47
2022/12/15 02:32:25;;;;;;;16.03;13.47;;;;;;;-3.18;100.00;97550.72;4217055;27;20206;-48
2022/12/15 02:34:36;;;;;;;17.10;14.83;;;;;;;-3.18;100.00;97540.00;4219649;27;20206;-48
2022/12/15 02:36:42;;;;;;;13.03;11.87;;;;;;;-3.14;100.00;97541.31;4205061;28;20213;-48
2022/12/15 02:38:44;;;;;;;15.63;14.23;;;;;;;-3.18;100.00;97540.84;4204420;28;20618;-47
2022/12/15 02:40:46;;;;;;;15.83;14.40;;;;;;;-3.17;100.00;97539.00;4199640;28;20294;-48
2022/12/15 02:42:51;;;;;;;13.70;12.47;;;;;;;-3.19;100.00;97533.84;4216059;28;20207;-48
2022/12/15 02:44:57;;;;;;;15.40;14.00;;;;;;;-3.20;100.00;97526.00;4197890;28;20295;-48
2022/12/15 02:47:10;;;;;;;17.23;14.63;;;;;;;-3.17;100.00;97536.31;4213948;28;20728;-48
2022/12/15 02:49:25;;;;;;;13.40;12.03;;;;;;;-3.19;100.00;97533.00;4200862;28;20210;-48
2022/12/15 02:51:59;;;;;;;14.20;12.80;;;;;;;-3.18;100.00;97540.84;4190484;28;20227;-48
2022/12/15 02:54:04;;;;;;;14.07;12.57;;;;;;;-3.09;100.00;97546.91;4186906;27;20210;-48
2022/12/15 02:56:17;;;;;;;16.23;14.73;;;;;;;-3.13;100.00;97548.31;4205980;28;20231;-48
2022/12/15 02:58:24;;;;;;;14.10;12.87;;;;;;;-3.18;100.00;97556.06;4204762;28;20287;-49
2022/12/15 03:00:27;;;;;;;15.83;14.33;;;;;;;-3.20;100.00;97560.78;4205129;28;20236;-48
2022/12/15 03:02:31;;;;;;;15.87;14.30;;;;;;;-3.21;100.00;97551.91;4215128;28;20206;-48
2022/12/15 03:04:33;;;;;;;14.20;12.90;;;;;;;-3.23;100.00;97550.44;4200880;28;20659;-48
2022/12/15 03:06:35;;;;;;;15.30;13.83;;;;;;;-3.23;100.00;97555.78;4200996;28;20251;-48
2022/12/15 03:08:37;;;;;;;15.23;13.63;;;;;;;-3.22;100.00;97562.78;4188306;28;20298;-48
2022/12/15 03:10:39;;;;;;;20.00;14.27;;;;;;;-3.29;100.00;97567.22;4196696;28;20251;-48
2022/12/15 03:12:41;;;;;;;17.83;15.97;;;;;;;-3.31;100.00;97564.75;4206180;28;20202;-48
2022/12/15 03:14:43;;;;;;;14.33;13.13;;;;;;;-3.32;100.00;97564.94;4204344;28;20203;-48
2022/12/15 03:16:44;;;;;;;21.53;14.07;;;;;;;-3.37;100.00;97562.84;4199811;28;20227;-48
2022/12/15 03:18:46;;;;;;;14.80;13.33;;;;;;;-3.42;100.00;97575.09;4188028;28;20238;-48
2022/12/15 03:20:48;;;;;;;16.23;13.60;;;;;;;-3.35;100.00;97581.38;4196968;28;20342;-48
2022/12/15 03:22:50;;;;;;;16.23;14.73;;;;;;;-3.24;100.00;97578.19;4203100;28;20253;-49
2022/12/15 03:24:52;;;;;;;15.83;14.03;;;;;;;-3.22;100.00;97581.50;4219226;28;20217;-47
2022/12/15 03:26:53;;;;;;;15.63;14.00;;;;;;;-3.39;100.00;97575.56;4200414;28;20227;-48
2022/12/15 03:28:55;;;;;;;18.13;14.63;;;;;;;-3.42;100.00;97575.94;4215091;28;20206;-48
2022/12/15 03:30:57;;;;;;;16.17;14.57;;;;;;;-3.36;100.00;97579.69;4198406;28;20257;-49
2022/12/15 03:32:59;;;;;;;18.60;14.33;;;;;;;-3.30;100.00;97581.63;4212834;28;20210;-49
2022/12/15 03:35:01;;;;;;;16.80;13.83;;;;;;;-3.33;100.00;97576.66;4186398;28;20927;-49
2022/12/15 03:37:02;;;;;;;17.10;14.70;;;;;;;-3.36;100.00;97580.53;4205607;28;20285;-48
2022/12/15 03:39:04;;;;;;;15.53;14.23;;;;;;;-3.57;100.00;97577.78;4202471;28;20265;-49
2022/12/15 03:41:06;;;;;;;13.73;12.47;;;;;;;-3.62;100.00;97579.34;4200730;28;20294;-49
2022/12/15 03:43:08;;;;;;;13.00;11.90;;;;;;;-3.66;100.00;97573.53;4200127;28;20211;-49
2022/12/15 03:45:10;;;;;;;16.30;12.97;;;;;;;-3.72;100.00;97581.47;4218477;28;20229;-49
2022/12/15 03:47:11;;;;;;;15.63;13.87;;;;;;;-3.83;100.00;97582.75;4206526;28;20321;-48
2022/12/15 03:49:13;;;;;;;14.43;12.90;;;;;;;-3.88;100.00;97585.16;4188152;28;20383;-48
2022/12/15 03:51:15;;;;;;;14.17;12.77;;;;;;;-3.91;100.00;97590.03;4222484;27;20249;-48
2022/12/15 03:53:17;;;;;;;15.73;14.07;;;;;;;-3.92;100.00;97585.69;4220461;27;20720;-48
2022/12/15 03:55:20;;;;;;;14.93;13.03;;;;;;;-3.88;100.00;97589.69;4205528;28;20207;-49
2022/12/15 03:57:22;;;;;;;13.70;12.20;;;;;;;-4.01;100.00;97592.97;4201771;28;20794;-48
2022/12/15 03:59:23;;;;;;;16.97;12.23;;;;;;;-4.10;100.00;97596.72;4205271;28;20206;-48
2022/12/15 04:01:28;;;;;;;17.63;12.57;;;;;;;-3.83;100.00;97603.28;4216917;28;20654;-48
2022/12/15 04:03:30;;;;;;;12.97;11.63;;;;;;;-3.89;100.00;97604.03;4201839;28;20209;-48
2022/12/15 04:05:34;;;;;;;12.90;11.47;;;;;;;-4.01;100.00;97605.50;4201819;28;21235;-48
2022/12/15 04:07:35;;;;;;;20.53;12.73;;;;;;;-4.08;100.00;97593.88;4201081;28;20234;-49
2022/12/15 04:09:37;;;;;;;12.73;11.57;;;;;;;-4.09;100.00;97593.03;4203897;28;20298;-48
2022/12/15 04:11:39;;;;;;;14.83;13.30;;;;;;;-3.99;100.00;97592.78;4203972;28;20215;-48
2022/12/15 04:13:41;;;;;;;13.10;12.00;;;;;;;-3.90;100.00;97591.69;4219399;27;20205;-48
2022/12/15 04:15:42;;;;;;;14.97;11.27;;;;;;;-3.96;100.00;97597.75;4206689;28;20203;-48
2022/12/15 04:17:44;;;;;;;13.93;12.67;;;;;;;-4.05;100.00;97594.34;4204223;28;20218;-48
2022/12/15 04:22:06;;;;;;;13.57;12.30;;;;;;;-4.16;100.00;97585.94;4219597;28;20636;-48
2022/12/15 05:32:05;;;;;;;14.97;13.63;;;;;;;-4.63;100.00;97634.22;4213867;28;20206;-49
2022/12/15 05:34:07;;;;;;;15.30;13.77;;;;;;;-4.65;100.00;97632.72;4200131;28;20203;-49
2022/12/15 05:36:09;;;;;;;13.70;12.40;;;;;;;-4.68;100.00;97631.25;4187068;28;20203;-49
2022/12/15 05:38:11;;;;;;;14.77;13.40;;;;;;;-4.72;100.00;97631.78;4215331;27;20215;-48
2022/12/15 05:40:12;;;;;;;18.90;13.43;;;;;;;-4.74;100.00;97639.13;4199282;28;20226;-49
2022/12/15 05:42:14;;;;;;;17.00;14.30;;;;;;;-4.76;100.00;97651.78;4219379;27;20214;-48
2022/12/15 05:44:16;;;;;;;15.53;14.03;;;;;;;-4.73;100.00;97656.78;4218497;27;20285;-49
2022/12/15 05:46:18;;;;;;;16.23;13.97;;;;;;;-4.71;100.00;97660.09;4200715;28;20627;-49
2022/12/15 05:48:20;;;;;;;15.10;12.47;;;;;;;-4.69;100.00;97666.09;4203187;28;20326;-49
2022/12/15 05:50:22;;;;;;;13.80;12.60;;;;;;;-4.64;100.00;97669.91;4202689;28;20297;-50
2022/12/15 05:52:24;;;;;;;15.27;13.73;;;;;;;-4.71;100.00;97660.94;4204520;28;20792;-50
2022/12/15 05:54:26;;;;;;;16.07;12.30;;;;;;;-4.75;100.00;97664.13;4205267;28;20206;-49
2022/12/15 05:56:27;;;;;;;16.97;13.70;;;;;;;-4.86;100.00;97661.88;4217447;27;20241;-50
2022/12/15 05:58:29;;;;;;;14.27;12.80;;;;;;;-4.95;100.00;97663.75;4217510;27;20230;-49
2022/12/15 06:00:31;;;;;;;14.50;13.03;;;;;;;-4.99;100.00;97656.28;4202274;28;20808;-50
2022/12/15 06:02:33;;;;;;;15.17;13.77;;;;;;;-4.97;100.00;97655.09;4197300;28;20246;-49
2022/12/15 06:04:35;;;;;;;13.57;12.17;;;;;;;-5.04;100.00;97653.28;4198156;28;20211;-49
2022/12/15 06:06:37;;;;;;;12.00;10.90;;;;;;;-5.02;100.00;97645.94;4213616;28;20213;-49
2022/12/15 06:08:40;;;;;;;16.03;14.60;;;;;;;-5.00;100.00;97644.78;4193266;28;20321;-49
2022/12/15 06:10:42;;;;;;;15.47;13.93;;;;;;;-5.07;100.00;97643.00;4209683;27;20224;-49
2022/12/15 06:12:44;;;;;;;15.53;14.03;;;;;;;-5.07;100.00;97643.00;4199278;28;21266;-48
2022/12/15 06:14:46;;;;;;;21.10;15.50;;;;;;;-5.06;100.00;97642.78;4201784;28;20275;-49
2022/12/15 06:16:50;;;;;;;15.03;13.63;;;;;;;-5.03;100.00;97638.97;4191224;28;20594;-49
2022/12/15 06:18:55;;;;;;;25.47;15.57;;;;;;;-5.11;100.00;97641.66;4217782;27;20229;-49
2022/12/15 06:20:59;;;;;;;16.33;13.03;;;;;;;-5.12;100.00;97661.34;4204771;28;20203;-49
2022/12/15 06:23:00;;;;;;;16.73;13.43;;;;;;;-5.11;100.00;97663.00;4181183;28;20567;-50
2022/12/15 06:25:02;;;;;;;18.73;15.33;;;;;;;-5.03;100.00;97665.63;4202380;28;20292;-48
2022/12/15 06:27:04;;;;;;;13.97;12.77;;;;;;;-5.00;100.00;97670.63;4198599;28;20235;-49
2022/12/15 06:29:08;;;;;;;16.47;14.83;;;;;;;-5.14;100.00;97680.16;4176426;28;20282;-49
2022/12/15 06:31:13;;;;;;;15.93;14.63;;;;;;;-5.19;100.00;97695.84;4201111;28;20207;-49
2022/12/15 06:33:15;;;;;;;28.43;14.80;;;;;;;-5.19;100.00;97703.03;4197129;28;20238;-50
2022/12/15 06:35:17;;;;;;;15.40;13.83;;;;;;;-5.12;100.00;97698.66;4213078;27;20229;-49
2022/12/15 06:37:19;;;;;;;17.93;15.03;;;;;;;-5.17;100.00;97695.69;4180460;28;20267;-49
2022/12/15 06:39:21;;;;;;;13.80;12.60;;;;;;;-5.21;100.00;97703.19;4204601;28;20267;-49
2022/12/15 06:41:23;;;;;;;21.37;14.93;;;;;;;-5.15;100.00;97701.66;4190972;28;20238;-49
2022/12/15 06:43:26;;;;;;;16.40;14.80;;;;;;;-5.08;100.00;97705.31;4200892;28;20317;-49
2022/12/15 06:45:28;;;;;;;16.83;15.10;;;;;;;-5.21;100.00;97699.72;4181131;28;20215;-50
2022/12/15 06:47:30;;;;;;;20.00;15.07;;;;;;;-5.15;100.00;97685.66;4188655;28;20223;-49
2022/12/15 06:49:32;;;;;;;15.80;14.43;;;;;;;-5.12;100.00;97685.34;4203017;28;20194;-49
2022/12/15 06:51:34;;;;;;;15.23;13.83;;;;;;;-5.22;100.00;97682.03;4197612;28;20650;-49
2022/12/15 06:53:37;;;;;;;16.47;15.07;;;;;;;-5.25;100.00;97687.72;4181537;28;20231;-50
2022/12/15 06:55:39;;;;;;;15.73;12.57;;;;;;;-5.29;100.00;97697.03;4186751;28;20215;-49
2022/12/15 06:57:41;;;;;;;14.73;13.43;;;;;;;-5.30;100.00;97700.72;4197799;28;20266;-49
2022/12/15 06:59:43;;;;;;;17.13;15.40;;;;;;;-5.24;100.00;97700.03;4198664;28;20247;-49
2022/12/15 07:01:45;;;;;;;13.97;12.57;;;;;;;-5.38;100.00;97698.09;4215417;28;20210;-49
2022/12/15 07:03:47;;;;;;;26.63;15.50;;;;;;;-5.36;100.00;97690.75;4201705;28;20209;-50
2022/12/15 07:06:01;;;;;;;15.17;13.57;;;;;;;-5.37;100.00;97685.59;4196076;28;20215;-49
2022/12/15 07:08:03;;;;;;;14.30;12.87;;;;;;;-5.40;100.00;97686.78;4199282;28;20238;-48
2022/12/15 07:10:05;;;;;;;13.17;11.97;;;;;;;-5.49;100.00;97685.13;4198422;28;20221;-49
2022/12/15 07:12:08;;;;;;;14.67;13.27;;;;;;;-5.46;100.00;97678.63;4214257;28;20215;-49
2022/12/15 07:14:10;;;;;;;16.33;14.67;;;;;;;-5.50;100.00;97683.47;4197361;28;20203;-49
2022/12/15 07:16:12;;;;;;;17.10;13.33;;;;;;;-5.49;100.00;97682.47;4196223;28;20203;-50
2022/12/15 07:18:15;;;;;;;15.63;13.17;;;;;;;-5.47;100.00;97683.13;4179060;28;20223;-48
2022/12/15 07:20:16;;;;;;;12.20;10.87;;;;;;;-5.52;100.00;97685.47;4205716;28;20215;-49
2022/12/15 07:22:19;;;;;;;15.53;13.80;;;;;;;-5.39;100.00;97690.25;4201481;28;20214;-48
2022/12/15 07:24:21;;;;;;;13.83;12.47;;;;;;;-5.48;100.00;97689.47;4197226;28;20662;-49
2022/12/15 07:26:23;;;;;;;15.87;14.40;;;;;;;-5.40;100.00;97689.44;4205939;28;20208;-49
2022/12/15 07:28:25;;;;;;;15.90;14.30;;;;;;;-5.58;100.00;97686.16;4194606;28;20227;-49
2022/12/15 07:30:27;;;;;;;15.67;14.17;;;;;;;-5.51;100.00;97687.13;4196720;28;20233;-48
2022/12/15 07:32:34;;;;;;;17.70;13.63;;;;;;;-5.49;100.00;97677.13;4217813;28;20297;-49
2022/12/15 07:34:36;;;;;;;13.47;12.17;;;;;;;-5.54;100.00;97678.66;4214535;28;20578;-49
2022/12/15 07:36:38;;;;;;;12.13;11.10;;;;;;;-5.45;100.00;97681.13;4216868;28;20690;-48
2022/12/15 07:38:40;;;;;;;16.70;14.47;;;;;;;-5.33;100.00;97687.75;4198762;28;20753;-49
2022/12/15 07:40:42;;;;;;;16.10;13.27;;;;;;;-5.35;100.00;97692.41;4215716;28;20611;-49
2022/12/15 07:42:44;;;;;;;15.23;13.73;;;;;;;-5.29;100.00;97686.38;4214817;28;20209;-49
2022/12/15 07:44:45;;;;;;;14.50;13.23;;;;;;;-5.33;100.00;97689.56;4188756;28;20213;-49
2022/12/15 07:46:51;;;;;;;17.07;13.70;;;;;;;-5.39;100.00;97696.44;4203477;28;20655;-49
2022/12/15 07:48:53;;;;;;;16.67;15.10;;;;;;;-5.24;100.00;97708.03;4184053;28;20246;-48
2022/12/15 07:50:58;;;;;;;18.33;13.13;;;;;;;-5.09;100.00;97709.81;4187177;28;20229;-49
2022/12/15 07:53:10;;;;;;;20.37;14.03;;;;;;;-5.02;100.00;97717.94;4201036;28;20210;-49
2022/12/15 07:55:12;;;;;;;17.70;15.93;;;;;;;-5.08;100.00;97722.13;4193544;28;20230;-49
2022/12/15 07:57:15;;;;;;;14.27;12.97;;;;;;;-5.02;100.00;97715.28;4187101;28;20333;-49
2022/12/15 07:59:17;;;;;;;15.73;14.17;;;;;;;-4.97;100.00;97718.25;4187277;28;20206;-49
2022/12/15 08:01:19;;;;;;;14.70;13.30;;;;;;;-5.06;100.00;97713.97;4199043;28;20342;-49
2022/12/15 08:03:21;;;;;;;13.83;12.60;;;;;;;-4.90;100.00;97713.88;4198677;28;20211;-49
2022/12/15 08:05:23;;;;;;;14.83;13.33;;;;;;;-4.89;100.00;97711.06;4198381;28;20207;-49
2022/12/15 08:07:24;;;;;;;12.90;11.63;;;;;;;-4.82;100.00;97712.03;4201713;28;20316;-49
2022/12/15 08:09:26;;;;;;;13.23;12.00;;;;;;;-4.73;100.00;97702.16;4191280;28;20208;-49
2022/12/15 08:11:33;;;;;;;13.87;12.27;;;;;;;-4.70;100.00;97715.13;4195650;28;20243;-51
2022/12/15 08:13:36;;;;;;;16.77;14.27;;;;;;;-4.63;100.00;97721.41;4179230;28;20207;-49
2022/12/15 08:15:57;;;;;;;13.47;12.17;;;;;;;-4.56;100.00;97733.88;4198640;28;20775;-49
2022/12/15 08:17:59;;;;;;;14.90;13.63;;;;;;;-4.51;100.00;97741.38;4195896;28;20374;-49
2022/12/15 08:20:02;;;;;;;16.50;14.47;;;;;;;-4.52;100.00;97750.38;4200015;28;20280;-49
2022/12/15 08:22:10;;;;;;;18.13;13.33;;;;;;;-4.46;100.00;97749.69;4210171;28;20201;-49
2022/12/15 08:24:13;;;;;;;13.93;12.50;;;;;;;-4.36;100.00;97745.78;4196123;28;20211;-49
2022/12/15 08:26:16;;;;;;;14.47;13.37;;;;;;;-4.53;100.00;97743.38;4214561;28;20202;-49
2022/12/15 08:28:18;;;;;;;19.97;13.77;;;;;;;-4.40;100.00;97754.31;4202828;28;20771;-49
2022/12/15 08:30:21;;;;;;;15.07;13.70;;;;;;;-4.37;100.00;97765.47;4187289;28;20211;-48
2022/12/15 08:32:23;;;;;;;13.33;12.03;;;;;;;-4.61;100.00;97759.44;4203083;28;20809;-48
2022/12/15 08:34:25;;;;;;;19.33;13.43;;;;;;;-4.57;100.00;97774.94;4186115;28;20639;-49
2022/12/15 08:36:28;;;;;;;15.93;14.43;;;;;;;-4.69;100.00;97780.81;4216259;27;20259;-49
2022/12/15 08:38:31;;;;;;;16.27;14.30;;;;;;;-4.48;100.00;97778.41;4200380;28;20194;-48
2022/12/15 08:40:32;;;;;;;16.23;14.60;;;;;;;-4.46;100.00;97781.72;4183933;28;20382;-48
2022/12/15 08:42:35;;;;;;;14.57;13.00;;;;;;;-4.43;100.00;97786.69;4216047;27;20206;-48
2022/12/15 08:44:37;;;;;;;19.50;15.93;;;;;;;-4.32;100.00;97789.81;4197592;28;20696;-48
2022/12/15 08:46:39;;;;;;;17.77;15.90;;;;;;;-4.16;100.00;97791.53;4197806;28;20207;-49
2022/12/15 08:48:40;;;;;;;18.10;15.57;;;;;;;-4.06;100.00;97784.13;4196727;28;20581;-48
2022/12/15 08:50:44;;;;;;;18.93;14.60;;;;;;;-4.01;100.00;97792.47;4180595;28;20261;-48
2022/12/15 08:52:46;;;;;;;18.37;14.87;;;;;;;-3.87;100.00;97789.81;4199846;28;20251;-48
2022/12/15 08:55:10;;;;;;;16.40;14.80;;;;;;;-3.69;100.00;97789.53;4202003;28;20215;-48
2022/12/15 08:57:12;;;;;;;24.13;13.90;;;;;;;-3.69;100.00;97792.19;4202516;28;20252;-49
2022/12/15 08:59:14;;;;;;;16.07;14.37;;;;;;;-3.51;100.00;97800.75;4218473;27;20198;-49
2022/12/15 09:01:19;;;;;;;20.33;17.47;;;;;;;-3.56;100.00;97805.78;4200690;28;20207;-49
2022/12/15 09:03:26;;;;;;;16.87;15.10;;;;;;;-3.57;100.00;97817.50;4218597;27;20212;-49
2022/12/15 09:05:28;;;;;;;20.93;15.87;;;;;;;-3.48;100.00;97819.09;4191806;28;21814;-49
2022/12/15 09:07:29;;;;;;;17.40;13.77;;;;;;;-3.39;100.00;97810.84;4203350;28;20317;-48
2022/12/15 09:09:31;;;;;;;20.00;15.60;;;;;;;-3.24;100.00;97805.50;4196318;28;20318;-49
2022/12/15 09:11:33;;;;;;;19.77;15.60;;;;;;;-3.38;100.00;97803.63;4212636;27;20210;-49
2022/12/15 09:13:35;;;;;;;18.93;14.17;;;;;;;-3.67;100.00;97798.22;4214374;27;20281;-48
2022/12/15 09:15:40;;;;;;;20.83;15.63;;;;;;;-3.71;100.00;97791.56;4186307;28;20238;-49
2022/12/15 09:18:02;;;;;;;16.60;14.83;;;;;;;-3.67;100.00;97792.88;4196163;28;20779;-49
2022/12/15 09:20:04;;;;;;;20.10;14.87;;;;;;;-3.48;100.00;97789.69;4199761;28;20929;-49
2022/12/15 09:22:06;;;;;;;20.20;17.13;;;;;;;-3.45;100.00;97786.66;4197112;28;20306;-48
2022/12/15 09:24:11;;;;;;;23.97;16.17;;;;;;;-3.33;100.00;97785.22;4185226;28;20237;-49
2022/12/15 09:26:23;;;;;;;15.00;13.60;;;;;;;-3.20;100.00;97783.56;4214040;27;20220;-50
2022/12/15 09:28:25;;;;;;;14.73;13.23;;;;;;;-3.12;100.00;97785.31;4182880;28;20231;-49
2022/12/15 09:30:27;;;;;;;20.20;15.33;;;;;;;-3.04;100.00;97804.81;4201929;28;20625;-49
2022/12/15 09:32:29;;;;;;;18.17;14.83;;;;;;;-2.98;100.00;97801.41;4185634;28;20239;-50
2022/12/15 09:34:32;;;;;;;15.80;14.33;;;;;;;-2.93;100.00;97816.91;4205719;28;20847;-49
2022/12/15 09:36:34;;;;;;;16.63;14.93;;;;;;;-2.94;100.00;97810.72;4196987;28;20685;-49
2022/12/15 09:38:40;;;;;;;25.67;16.67;;;;;;;-3.42;100.00;97805.84;4183373;28;20666;-49
2022/12/15 09:40:42;;;;;;;15.73;14.13;;;;;;;-3.37;100.00;97807.97;4216480;27;20207;-48
2022/12/15 09:42:49;;;;;;;21.60;14.40;;;;;;;-3.24;100.00;97813.53;4179797;28;20249;-48
2022/12/15 09:45:19;;;;;;;18.13;16.17;;;;;;;-3.00;100.00;97815.97;4201539;27;20210;-48
2022/12/15 09:47:33;;;;;;;17.27;15.33;;;;;;;-2.82;100.00;97813.78;4215019;27;21076;-48
2022/12/15 09:49:52;;;;;;;17.07;15.43;;;;;;;-2.62;100.00;97809.53;4197375;28;20326;-48
2022/12/15 09:52:19;;;;;;;19.97;15.97;;;;;;;-2.40;100.00;97808.59;4200457;28;20215;-49
2022/12/15 09:54:22;;;;;;;17.13;15.53;;;;;;;-2.44;100.00;97807.28;4181259;28;20215;-49
2022/12/15 09:56:32;;;;;;;15.63;14.27;;;;;;;-2.60;100.00;97804.81;4185862;28;20313;-49
2022/12/15 09:58:49;;;;;;;21.03;15.57;;;;;;;-2.73;100.00;97802.78;4221066;27;20255;-49
2022/12/15 10:01:23;;;;;;;15.63;14.10;;;;;;;-2.66;100.00;97802.88;4202848;28;20203;-49
2022/12/15 10:03:55;;;;;;;17.53;14.97;;;;;;;-2.65;100.00;97807.22;4139393;28;20217;-49
2022/12/15 10:06:17;;;;;;;18.97;14.50;;;;;;;-2.38;100.00;97812.75;4200299;28;20285;-48
2022/12/15 10:08:45;;;;;;;17.77;14.57;;;;;;;-1.55;100.00;97800.47;4217248;27;20218;-49
2022/12/15 10:10:53;;;;;;;14.73;12.40;;;;;;;-0.70;100.00;97795.75;4177224;28;20215;-49
2022/12/15 10:12:59;;;;;;;17.10;15.33;;;;;;;-0.06;100.00;97796.09;4201913;28;20268;-49
2022/12/15 10:15:24;;;;;;;14.03;12.63;;;;;;;0.19;99.40;97794.53;4193834;28;20438;-49
2022/12/15 10:17:38;;;;;;;16.13;11.57;;;;;;;0.45;95.61;97794.59;4191988;28;20300;-50
2022/12/15 10:20:06;;;;;;;11.93;10.82;;;;;;;0.95;94.42;97796.69;4201738;28;20236;-49
2022/12/15 10:22:35;;;;;;;11.10;10.13;;;;;;;1.04;91.96;97791.91;4198302;28;20223;-49
2022/12/15 10:24:37;;;;;;;12.13;10.48;;;;;;;1.23;90.95;97773.06;4181605;28;20737;-49
2022/12/15 10:27:21;;;;;;;12.38;11.20;;;;;;;1.72;90.54;97759.84;4198177;28;20309;-49
2022/12/15 10:29:36;;;;;;;12.32;11.10;;;;;;;2.35;87.48;97764.31;4192162;28;20698;-48
2022/12/15 10:31:56;;;;;;;14.32;12.52;;;;;;;2.11;85.86;97762.38;4200150;28;20211;-48
2022/12/15 10:34:14;;;;;;;14.85;10.52;;;;;;;2.42;86.05;97764.28;4199721;28;20295;-49
2022/12/15 10:36:16;;;;;;;11.40;10.13;;;;;;;2.40;84.36;97756.38;4201641;28;20684;-49
2022/12/15 10:38:25;;;;;;;12.02;10.43;;;;;;;2.23;84.99;97757.97;4197633;28;20661;-49
2022/12/15 10:40:48;;;;;;;11.43;10.43;;;;;;;1.93;85.42;97764.94;4205565;28;20721;-49
2022/12/15 10:42:51;;;;;;;11.18;10.27;;;;;;;2.48;85.59;97769.63;4201263;28;20215;-49
2022/12/15 10:44:56;;;;;;;12.18;10.98;;;;;;;2.93;84.17;97768.47;4215218;28;20229;-50
2022/12/15 10:47:08;;;;;;;11.65;10.55;;;;;;;3.39;80.20;97763.47;4185377;28;20232;-51
2022/12/15 10:49:10;;;;;;;11.93;10.75;;;;;;;3.33;80.58;97769.75;4204732;28;20215;-49
2022/12/15 10:51:12;;;;;;;11.20;9.98;;;;;;;3.11;77.96;97760.41;4198004;28;20234;-48
2022/12/15 10:53:41;;;;;;;12.38;11.20;;;;;;;2.55;80.71;97761.50;4213078;28;20565;-49
2022/12/15 10:55:43;;;;;;;12.73;11.52;;;;;;;2.97;80.48;97758.88;4182397;28;20198;-48
2022/12/15 10:57:58;;;;;;;10.18;9.27;;;;;;;2.74;80.01;97753.25;4203923;28;20244;-48
2022/12/15 11:00:13;;;;;;;11.68;10.52;;;;;;;2.11;83.27;97746.19;4187098;28;20218;-48
2022/12/15 11:02:19;;;;;;;12.90;11.43;;;;;;;1.72;83.44;97754.47;4214881;27;20208;-48
2022/12/15 11:04:30;;;;;;;10.27;9.25;;;;;;;0.59;87.74;97742.44;4212604;28;20237;-48
2022/12/15 11:06:33;;;;;;;14.25;10.57;;;;;;;0.44;88.77;97728.38;4204012;28;20211;-49
2022/12/15 11:08:35;;;;;;;10.57;9.43;;;;;;;0.79;88.07;97737.03;4202989;28;20257;-49
2022/12/15 11:13:13;;;;;;;13.90;10.93;;;;;;;0.47;90.41;97732.50;4215804;28;20618;-47
2022/12/15 11:15:21;;;;;;;14.07;10.60;;;;;;;0.48;89.49;97740.34;4199651;28;20662;-47
2022/12/15 11:17:23;;;;;;;11.55;10.55;;;;;;;0.90;89.60;97734.56;4199263;28;20706;-49
2022/12/15 11:19:46;;;;;;;14.93;10.63;;;;;;;-0.19;91.03;97725.34;4201157;28;20289;-48
2022/12/15 11:21:52;;;;;;;12.05;10.80;;;;;;;0.06;92.74;97713.81;4211788;28;20246;-47
2022/12/15 11:24:00;;;;;;;11.82;10.60;;;;;;;0.40;91.75;97702.88;4192963;28;20247;-49
2022/12/15 11:26:23;;;;;;;16.30;11.65;;;;;;;0.69;89.36;97705.16;4201630;28;20230;-48
2022/12/15 11:28:33;;;;;;;16.73;12.45;;;;;;;-0.41;92.88;97710.38;4200936;28;20264;-50
2022/12/15 11:30:42;;;;;;;13.50;12.07;;;;;;;-0.14;92.93;97711.28;4196164;28;20310;-49
2022/12/15 11:32:57;;;;;;;13.18;11.85;;;;;;;1.04;89.20;97697.66;4197932;28;20233;-49
2022/12/15 11:34:59;;;;;;;13.02;11.73;;;;;;;1.11;88.01;97693.94;4199704;28;20211;-49
2022/12/15 11:37:05;;;;;;;12.88;10.60;;;;;;;1.07;87.61;97691.88;4198982;28;20235;-49
2022/12/15 11:39:15;;;;;;;11.35;10.13;;;;;;;0.06;90.44;97695.00;4213651;28;20241;-48
2022/12/15 11:41:23;;;;;;;15.43;11.15;;;;;;;-0.50;93.75;97700.84;4179949;28;20202;-47
2022/12/15 11:43:43;;;;;;;11.80;10.73;;;;;;;-0.50;95.54;97695.47;4199818;28;20210;-46
2022/12/15 11:46:28;;;;;;;13.25;12.15;;;;;;;-0.73;96.26;97704.88;4211675;28;20210;-60
2022/12/15 11:48:42;;;;;;;14.07;12.73;;;;;;;-0.23;96.14;97691.00;4194678;28;20233;-65
2022/12/15 11:50:59;;;;;;;12.97;10.43;;;;;;;0.79;93.53;97689.44;4182285;28;20202;-61
2022/12/15 11:53:23;;;;;;;13.60;12.13;;;;;;;1.42;90.73;97685.94;4213192;28;21227;-65
2022/12/15 11:55:30;;;;;;;14.68;10.90;;;;;;;1.18;90.85;97678.56;4212655;28;20236;-66
2022/12/15 11:58:06;;;;;;;12.13;10.98;;;;;;;1.69;89.78;97663.22;4187224;28;20329;-65
2022/12/15 12:00:12;;;;;;;12.18;10.98;;;;;;;1.92;87.46;97658.13;4199601;28;20289;-67
2022/12/15 12:02:29;;;;;;;11.77;10.50;;;;;;;2.11;87.31;97654.47;4197357;28;20207;-63